Time;durP1;ratioP1;P1;durP2;ratioP2;P2;SDS_P1;SDS_P2;PMS_P1;PMS_P2;Temp;Humidity;BMP_temperature;BMP_pressure;BME280_temperature;BME280_humidity;BME280_pressure;Samples;Min_cycle;Max_cycle;Signal;HPM_P1;HPM_P2
2023/11/07 00:00:49;;;;;;;1999.90;999.90;;;;;;;;;;5057627;28;20053;-88
2023/11/07 00:03:16;;;;;;;1999.90;999.90;;;;;;;;;;5037518;28;20148;-84
2023/11/07 00:05:44;;;;;;;1999.90;999.90;;;;;;;;;;5052563;28;20131;-84
2023/11/07 00:08:11;;;;;;;1999.90;999.90;;;;;;;;;;5062795;28;20627;-89
2023/11/07 00:10:38;;;;;;;1999.90;999.90;;;;;;;;;;5062826;28;20071;-84
2023/11/07 00:13:10;;;;;;;1999.90;999.90;;;;;;;;;;5059542;28;20461;-86
2023/11/07 00:15:38;;;;;;;1999.90;999.90;;;;;;;;;;5039839;28;20054;-84
2023/11/07 00:18:07;;;;;;;1999.90;999.90;;;;;;;;;;5056954;28;20053;-84
2023/11/07 00:20:34;;;;;;;1999.90;999.90;;;;;;;;;;5059726;28;20067;-86
2023/11/07 00:23:02;;;;;;;1999.90;999.90;;;;;;;;;;5060310;28;20060;-85
2023/11/07 00:25:29;;;;;;;1999.90;999.90;;;;;;;;;;5060085;28;20083;-84
2023/11/07 00:27:55;;;;;;;1999.90;999.90;;;;;;;;;;5060605;28;20517;-83
2023/11/07 00:30:22;;;;;;;1999.90;999.90;;;;;;;;;;5040168;28;20053;-84
2023/11/07 00:32:50;;;;;;;1999.90;999.90;;;;;;;;;;5039204;28;20049;-86
2023/11/07 00:35:21;;;;;;;1999.90;999.90;;;;;;;;;;5044331;28;20453;-85
2023/11/07 00:37:48;;;;;;;1999.90;999.90;;;;;;;;;;5057927;28;20447;-88
2023/11/07 00:40:16;;;;;;;1999.90;999.90;;;;;;;;;;5063226;28;20060;-87
2023/11/07 00:42:45;;;;;;;1999.90;999.90;;;;;;;;;;5060738;28;20152;-87
2023/11/07 00:45:11;;;;;;;1999.90;999.90;;;;;;;;;;5066530;28;20049;-87
2023/11/07 00:47:38;;;;;;;1999.90;999.90;;;;;;;;;;5041976;28;20510;-87
2023/11/07 00:50:07;;;;;;;1999.90;999.90;;;;;;;;;;5052496;28;20059;-87
2023/11/07 00:52:33;;;;;;;1999.90;999.90;;;;;;;;;;5068111;28;20127;-87
2023/11/07 00:55:00;;;;;;;1999.90;999.90;;;;;;;;;;5059208;28;20049;-88
2023/11/07 00:57:28;;;;;;;1999.90;999.90;;;;;;;;;;5062224;28;20421;-88
2023/11/07 00:59:55;;;;;;;1999.90;999.90;;;;;;;;;;5064431;28;20060;-87
2023/11/07 01:02:23;;;;;;;1999.90;999.90;;;;;;;;;;5056761;28;20139;-87
2023/11/07 01:04:50;;;;;;;1999.90;999.90;;;;;;;;;;5068080;28;20516;-89
2023/11/07 01:07:16;;;;;;;1999.90;999.90;;;;;;;;;;5064505;28;20044;-87
2023/11/07 01:09:43;;;;;;;1999.90;999.90;;;;;;;;;;5060629;28;20049;-89
2023/11/07 01:12:10;;;;;;;1999.90;999.90;;;;;;;;;;5058512;28;20048;-85
2023/11/07 01:14:40;;;;;;;1999.90;999.90;;;;;;;;;;5061616;28;20045;-87
2023/11/07 01:17:07;;;;;;;1999.90;999.90;;;;;;;;;;5059331;28;20053;-87
2023/11/07 01:19:35;;;;;;;1999.90;999.90;;;;;;;;;;5064394;28;20056;-85
2023/11/07 01:22:02;;;;;;;1999.90;999.90;;;;;;;;;;5062099;28;20045;-87
2023/11/07 01:24:29;;;;;;;1999.90;999.90;;;;;;;;;;5046321;28;20056;-89
2023/11/07 01:26:56;;;;;;;1999.90;999.90;;;;;;;;;;5057352;28;20736;-86
2023/11/07 01:29:23;;;;;;;1999.90;999.90;;;;;;;;;;5056650;28;20040;-87
2023/11/07 01:31:52;;;;;;;1999.90;999.90;;;;;;;;;;5064224;28;20045;-87
2023/11/07 01:34:19;;;;;;;1999.90;999.90;;;;;;;;;;5055811;28;20089;-88
2023/11/07 01:36:46;;;;;;;1999.90;999.90;;;;;;;;;;5061148;28;20540;-88
2023/11/07 01:39:13;;;;;;;1999.90;999.90;;;;;;;;;;5066675;28;20135;-87
2023/11/07 01:41:40;;;;;;;1999.90;999.90;;;;;;;;;;5067282;28;20041;-88
2023/11/07 01:44:07;;;;;;;1999.90;999.90;;;;;;;;;;5043377;28;20049;-87
2023/11/07 01:46:34;;;;;;;1999.90;999.90;;;;;;;;;;5072283;28;20064;-87
2023/11/07 01:49:02;;;;;;;1999.90;999.90;;;;;;;;;;5065409;28;20060;-87
2023/11/07 01:51:30;;;;;;;1999.90;999.90;;;;;;;;;;5071811;28;20051;-88
2023/11/07 01:53:57;;;;;;;1999.90;999.90;;;;;;;;;;5048826;28;20049;-88
2023/11/07 01:56:25;;;;;;;1999.90;999.90;;;;;;;;;;5062542;28;20049;-88
2023/11/07 01:58:54;;;;;;;1999.90;999.90;;;;;;;;;;5067067;28;20044;-88
2023/11/07 02:01:22;;;;;;;1999.90;999.90;;;;;;;;;;5067953;28;20053;-88
2023/11/07 02:03:50;;;;;;;1999.90;999.90;;;;;;;;;;5046992;28;20142;-87
2023/11/07 02:06:18;;;;;;;1999.90;999.90;;;;;;;;;;5044398;28;20418;-87
2023/11/07 02:08:45;;;;;;;1999.90;999.90;;;;;;;;;;5044014;28;20048;-86
2023/11/07 02:11:12;;;;;;;1999.90;999.90;;;;;;;;;;5059982;28;20053;-86
2023/11/07 02:13:39;;;;;;;1999.90;999.90;;;;;;;;;;5064856;28;20049;-87
2023/11/07 02:16:07;;;;;;;1999.90;999.90;;;;;;;;;;5071778;28;20052;-90
2023/11/07 02:18:34;;;;;;;1999.90;999.90;;;;;;;;;;5043524;28;20048;-87
2023/11/07 02:21:01;;;;;;;1999.90;999.90;;;;;;;;;;5061895;28;20092;-88
2023/11/07 02:23:33;;;;;;;1999.90;999.90;;;;;;;;;;5062450;28;20051;-89
2023/11/07 02:26:01;;;;;;;1999.90;999.90;;;;;;;;;;5063917;28;20552;-87
2023/11/07 02:28:27;;;;;;;1999.90;999.90;;;;;;;;;;5062814;28;20083;-87
2023/11/07 02:30:54;;;;;;;1999.90;999.90;;;;;;;;;;5063094;28;20534;-87
2023/11/07 02:33:21;;;;;;;1999.90;999.90;;;;;;;;;;5066730;28;20410;-87
2023/11/07 02:35:48;;;;;;;1999.90;999.90;;;;;;;;;;5065832;28;20065;-87
2023/11/07 02:38:16;;;;;;;1999.90;999.90;;;;;;;;;;5068083;28;20079;-86
2023/11/07 02:40:44;;;;;;;1999.90;999.90;;;;;;;;;;5064153;28;20106;-88
2023/11/07 02:43:11;;;;;;;1999.90;999.90;;;;;;;;;;5046863;28;20057;-87
2023/11/07 02:45:38;;;;;;;1999.90;999.90;;;;;;;;;;5047617;28;20098;-88
2023/11/07 02:48:06;;;;;;;1999.90;999.90;;;;;;;;;;5066689;28;20052;-88
2023/11/07 02:50:33;;;;;;;1999.90;999.90;;;;;;;;;;5054584;28;20064;-88
2023/11/07 02:53:00;;;;;;;1999.90;999.90;;;;;;;;;;5066710;28;20049;-88
2023/11/07 02:55:29;;;;;;;1999.90;999.90;;;;;;;;;;5067124;28;20061;-88
2023/11/07 02:57:58;;;;;;;1999.90;999.90;;;;;;;;;;5062350;28;20131;-84
2023/11/07 03:00:26;;;;;;;1999.90;999.90;;;;;;;;;;5057291;28;20434;-83
2023/11/07 03:02:53;;;;;;;1999.90;999.90;;;;;;;;;;5039940;28;20060;-85
2023/11/07 03:05:20;;;;;;;1999.90;999.90;;;;;;;;;;5060764;28;20580;-83
2023/11/07 03:07:47;;;;;;;1999.90;999.90;;;;;;;;;;5062194;28;20510;-85
2023/11/07 03:10:14;;;;;;;1999.90;999.90;;;;;;;;;;5062265;28;20422;-84
2023/11/07 03:12:49;;;;;;;1999.90;999.90;;;;;;;;;;5040347;28;20045;-84
2023/11/07 03:15:17;;;;;;;1999.90;999.90;;;;;;;;;;5060648;28;20510;-84
2023/11/07 03:17:44;;;;;;;1999.90;999.90;;;;;;;;;;5060179;28;20434;-83
2023/11/07 03:20:12;;;;;;;1999.90;999.90;;;;;;;;;;5041719;28;20041;-85
2023/11/07 03:22:39;;;;;;;1999.90;999.90;;;;;;;;;;5059652;28;20055;-85
2023/11/07 03:25:06;;;;;;;1999.90;999.90;;;;;;;;;;5061624;28;20046;-84
2023/11/07 03:27:36;;;;;;;1999.90;999.90;;;;;;;;;;5040423;28;20534;-88
2023/11/07 03:30:05;;;;;;;1999.90;999.90;;;;;;;;;;5065770;28;20063;-88
2023/11/07 03:32:34;;;;;;;1999.90;999.90;;;;;;;;;;5063459;28;20418;-88
2023/11/07 03:35:01;;;;;;;1999.90;999.90;;;;;;;;;;5060455;28;20055;-87
2023/11/07 03:37:28;;;;;;;1999.90;999.90;;;;;;;;;;5062783;28;20529;-88
2023/11/07 03:39:55;;;;;;;1999.90;999.90;;;;;;;;;;5045877;28;20055;-88
2023/11/07 03:42:22;;;;;;;1999.90;999.90;;;;;;;;;;5040623;28;20053;-88
2023/11/07 03:44:49;;;;;;;1999.90;999.90;;;;;;;;;;5035284;28;20798;-88
2023/11/07 03:47:17;;;;;;;1999.90;999.90;;;;;;;;;;5066315;28;20072;-87
2023/11/07 03:49:46;;;;;;;1999.90;999.90;;;;;;;;;;5062619;28;20053;-87
2023/11/07 03:52:13;;;;;;;1999.90;999.90;;;;;;;;;;5067570;28;20433;-87
2023/11/07 03:54:40;;;;;;;1999.90;999.90;;;;;;;;;;5067189;28;20056;-86
2023/11/07 03:57:07;;;;;;;1999.90;999.90;;;;;;;;;;5052676;28;20049;-86
2023/11/07 03:59:35;;;;;;;1999.90;999.90;;;;;;;;;;5066078;28;20048;-86
2023/11/07 04:02:05;;;;;;;1999.90;999.90;;;;;;;;;;5049560;28;20124;-87
2023/11/07 04:04:31;;;;;;;1999.90;999.90;;;;;;;;;;5060616;28;20052;-87
2023/11/07 04:07:00;;;;;;;1999.90;999.90;;;;;;;;;;5052073;28;20052;-88
2023/11/07 04:09:30;;;;;;;1999.90;999.90;;;;;;;;;;5057192;28;20722;-88
2023/11/07 04:11:59;;;;;;;1999.90;999.90;;;;;;;;;;5045283;28;20106;-88
2023/11/07 04:14:27;;;;;;;1999.90;999.90;;;;;;;;;;5053302;28;20049;-88
2023/11/07 04:16:55;;;;;;;1999.90;999.90;;;;;;;;;;5060749;28;20140;-87
2023/11/07 04:19:22;;;;;;;1999.90;999.90;;;;;;;;;;5064630;28;20135;-88
2023/11/07 04:21:48;;;;;;;1999.90;999.90;;;;;;;;;;5046203;28;20066;-86
2023/11/07 04:24:17;;;;;;;1999.90;999.90;;;;;;;;;;5060569;28;20049;-87
2023/11/07 04:26:46;;;;;;;1999.90;999.90;;;;;;;;;;5062913;28;20135;-88
2023/11/07 04:29:13;;;;;;;1999.90;999.90;;;;;;;;;;5062192;28;20056;-88
2023/11/07 04:31:40;;;;;;;1999.90;999.90;;;;;;;;;;5063171;28;20090;-87
2023/11/07 04:34:09;;;;;;;1999.90;999.90;;;;;;;;;;5065107;28;20503;-88
2023/11/07 04:36:37;;;;;;;1999.90;999.90;;;;;;;;;;5048665;28;20057;-87
2023/11/07 04:39:05;;;;;;;1999.90;999.90;;;;;;;;;;5055528;28;20048;-87
2023/11/07 04:41:34;;;;;;;1999.90;999.90;;;;;;;;;;5060491;28;20496;-87
2023/11/07 04:44:02;;;;;;;1999.90;999.90;;;;;;;;;;5060285;28;20041;-88
2023/11/07 04:46:29;;;;;;;1999.90;999.90;;;;;;;;;;5061098;28;20056;-87
2023/11/07 04:48:57;;;;;;;1999.90;999.90;;;;;;;;;;5060088;28;20437;-88
2023/11/07 04:51:23;;;;;;;1999.90;999.90;;;;;;;;;;5063097;28;20752;-88
2023/11/07 04:53:50;;;;;;;1999.90;999.90;;;;;;;;;;5061174;28;20054;-87
2023/11/07 04:56:18;;;;;;;1999.90;999.90;;;;;;;;;;5039816;28;20513;-87
2023/11/07 04:58:46;;;;;;;1999.90;999.90;;;;;;;;;;5061898;28;20107;-87
2023/11/07 05:01:15;;;;;;;1999.90;999.90;;;;;;;;;;5064037;28;20052;-88
2023/11/07 05:03:42;;;;;;;1999.90;999.90;;;;;;;;;;5043485;28;20535;-88
2023/11/07 05:06:09;;;;;;;1999.90;999.90;;;;;;;;;;5045968;28;20057;-86
2023/11/07 05:08:36;;;;;;;1999.90;999.90;;;;;;;;;;5063321;28;20051;-87
2023/11/07 05:11:03;;;;;;;1999.90;999.90;;;;;;;;;;5043665;28;20049;-87
2023/11/07 05:13:33;;;;;;;1999.90;999.90;;;;;;;;;;5040638;28;20045;-86
2023/11/07 05:16:01;;;;;;;1999.90;999.90;;;;;;;;;;5042363;28;20511;-87
2023/11/07 05:18:28;;;;;;;1999.90;999.90;;;;;;;;;;5042216;28;20052;-87
2023/11/07 05:20:55;;;;;;;1999.90;999.90;;;;;;;;;;5038984;28;20069;-88
2023/11/07 05:23:22;;;;;;;1999.90;999.90;;;;;;;;;;5058775;28;20072;-88
2023/11/07 05:25:49;;;;;;;1999.90;999.90;;;;;;;;;;5067368;28;20057;-87
2023/11/07 05:28:16;;;;;;;1999.90;999.90;;;;;;;;;;5063299;28;20629;-87
2023/11/07 05:30:42;;;;;;;1999.90;999.90;;;;;;;;;;5041221;28;20517;-89
2023/11/07 05:33:12;;;;;;;1999.90;999.90;;;;;;;;;;5059149;28;20057;-88
2023/11/07 05:35:38;;;;;;;1999.90;999.90;;;;;;;;;;5060445;28;20060;-88
2023/11/07 05:38:06;;;;;;;1999.90;999.90;;;;;;;;;;5048865;28;20060;-88
2023/11/07 05:40:33;;;;;;;1999.90;999.90;;;;;;;;;;5061868;28;20124;-85
2023/11/07 05:42:59;;;;;;;1999.90;999.90;;;;;;;;;;5062376;28;20056;-88
2023/11/07 05:45:27;;;;;;;1999.90;999.90;;;;;;;;;;5059812;28;20135;-88
2023/11/07 05:47:55;;;;;;;1999.90;999.90;;;;;;;;;;5067351;28;20056;-88
2023/11/07 05:50:25;;;;;;;1999.90;999.90;;;;;;;;;;5055670;28;20041;-87
2023/11/07 05:52:52;;;;;;;1999.90;999.90;;;;;;;;;;5060541;28;20049;-86
2023/11/07 05:55:19;;;;;;;1999.90;999.90;;;;;;;;;;5048020;28;20522;-85
2023/11/07 05:57:47;;;;;;;1999.90;999.90;;;;;;;;;;5063020;28;20122;-87
2023/11/07 06:00:15;;;;;;;1999.90;999.90;;;;;;;;;;5044275;28;20132;-87
2023/11/07 06:02:42;;;;;;;1999.90;999.90;;;;;;;;;;5055676;28;20411;-86
2023/11/07 06:05:09;;;;;;;1999.90;999.90;;;;;;;;;;5041513;28;20049;-86
2023/11/07 06:07:39;;;;;;;1999.90;999.90;;;;;;;;;;5058206;28;20135;-86
2023/11/07 06:10:07;;;;;;;1999.90;999.90;;;;;;;;;;5066129;28;20057;-86
2023/11/07 06:12:35;;;;;;;1999.90;999.90;;;;;;;;;;5058219;28;20088;-86
2023/11/07 06:15:02;;;;;;;1999.90;999.90;;;;;;;;;;5042090;28;20084;-86
2023/11/07 06:17:29;;;;;;;1999.90;999.90;;;;;;;;;;5042588;28;20078;-89
2023/11/07 06:19:56;;;;;;;1999.90;999.90;;;;;;;;;;5061600;28;20052;-87
2023/11/07 06:22:23;;;;;;;1999.90;999.90;;;;;;;;;;5026111;28;20538;-86
2023/11/07 06:24:51;;;;;;;1999.90;999.90;;;;;;;;;;5055857;28;20056;-90
2023/11/07 06:27:18;;;;;;;1999.90;999.90;;;;;;;;;;5064548;28;20049;-86
2023/11/07 06:29:46;;;;;;;1999.90;999.90;;;;;;;;;;5063329;28;20063;-85
2023/11/07 06:32:13;;;;;;;1999.90;999.90;;;;;;;;;;5026134;28;20076;-86
2023/11/07 06:34:40;;;;;;;1999.90;999.90;;;;;;;;;;5062851;28;20423;-85
2023/11/07 06:37:08;;;;;;;1999.90;999.90;;;;;;;;;;5067397;28;20071;-85
2023/11/07 06:39:36;;;;;;;1999.90;999.90;;;;;;;;;;5061944;28;20049;-85
2023/11/07 06:42:05;;;;;;;1999.90;999.90;;;;;;;;;;5044645;28;20044;-84
2023/11/07 06:44:32;;;;;;;1999.90;999.90;;;;;;;;;;5039987;28;20040;-83
2023/11/07 06:46:59;;;;;;;1999.90;999.90;;;;;;;;;;5058869;28;20591;-84
2023/11/07 06:49:28;;;;;;;1999.90;999.90;;;;;;;;;;5062535;28;20067;-86
2023/11/07 06:51:54;;;;;;;1999.90;999.90;;;;;;;;;;5063593;28;20056;-84
2023/11/07 06:54:21;;;;;;;1999.90;999.90;;;;;;;;;;5061216;28;20051;-85
2023/11/07 06:56:48;;;;;;;1999.90;999.90;;;;;;;;;;5063019;28;20048;-86
2023/11/07 06:59:17;;;;;;;1999.90;999.90;;;;;;;;;;5042091;28;20081;-86
2023/11/07 07:01:45;;;;;;;1999.90;999.90;;;;;;;;;;5059628;28;20293;-85
2023/11/07 07:04:13;;;;;;;1999.90;999.90;;;;;;;;;;5027026;28;20103;-85
2023/11/07 07:06:40;;;;;;;1999.90;999.90;;;;;;;;;;5054265;28;20075;-85
2023/11/07 07:09:08;;;;;;;1999.90;999.90;;;;;;;;;;5062510;28;20063;-86
2023/11/07 07:11:35;;;;;;;1999.90;999.90;;;;;;;;;;5042263;28;20132;-85
2023/11/07 07:14:03;;;;;;;1999.90;999.90;;;;;;;;;;5059304;28;20466;-86
2023/11/07 07:16:33;;;;;;;1999.90;999.90;;;;;;;;;;5046623;28;20053;-84
2023/11/07 07:19:04;;;;;;;1999.90;999.90;;;;;;;;;;5057132;28;20049;-86
2023/11/07 07:21:34;;;;;;;1999.90;999.90;;;;;;;;;;5040575;28;20061;-87
2023/11/07 07:24:15;;;;;;;1999.90;999.90;;;;;;;;;;5062605;28;20056;-87
2023/11/07 07:26:46;;;;;;;1999.90;999.90;;;;;;;;;;5053885;28;20499;-85
2023/11/07 07:29:13;;;;;;;1999.90;999.90;;;;;;;;;;5066448;28;20517;-86
2023/11/07 07:31:44;;;;;;;1999.90;999.90;;;;;;;;;;5059066;28;20054;-87
2023/11/07 07:34:13;;;;;;;1999.90;999.90;;;;;;;;;;5066898;28;20045;-86
2023/11/07 07:36:44;;;;;;;1999.90;999.90;;;;;;;;;;5065150;28;20057;-87
2023/11/07 07:39:27;;;;;;;1999.90;999.90;;;;;;;;;;5062359;28;20055;-86
2023/11/07 07:41:56;;;;;;;1999.90;999.90;;;;;;;;;;5059558;28;20095;-85
2023/11/07 07:44:25;;;;;;;1999.90;999.90;;;;;;;;;;5040864;28;20568;-87
2023/11/07 07:46:54;;;;;;;1999.90;999.90;;;;;;;;;;5056838;28;20045;-86
2023/11/07 07:49:23;;;;;;;1999.90;999.90;;;;;;;;;;5058680;28;20072;-87
2023/11/07 07:51:53;;;;;;;1999.90;999.90;;;;;;;;;;5061166;28;20057;-86
2023/11/07 07:54:22;;;;;;;1999.90;999.90;;;;;;;;;;5065703;28;20048;-86
2023/11/07 07:56:53;;;;;;;1999.90;999.90;;;;;;;;;;5057924;28;20139;-87
2023/11/07 07:59:23;;;;;;;1999.90;999.90;;;;;;;;;;5058834;28;20110;-87
2023/11/07 08:01:55;;;;;;;1999.90;999.90;;;;;;;;;;5063611;28;20437;-87
2023/11/07 08:04:22;;;;;;;1999.90;999.90;;;;;;;;;;5052702;28;20049;-87
2023/11/07 08:06:49;;;;;;;1999.90;999.90;;;;;;;;;;5037767;28;20048;-86
2023/11/07 08:09:19;;;;;;;1999.90;999.90;;;;;;;;;;5063081;28;20048;-87
2023/11/07 08:11:48;;;;;;;1999.90;999.90;;;;;;;;;;5058003;28;20427;-87
2023/11/07 08:14:15;;;;;;;1999.90;999.90;;;;;;;;;;5058313;28;20057;-87
2023/11/07 08:16:42;;;;;;;1999.90;999.90;;;;;;;;;;5057696;28;20060;-87
2023/11/07 08:19:11;;;;;;;1999.90;999.90;;;;;;;;;;5043145;28;20582;-87
2023/11/07 08:21:39;;;;;;;1999.90;999.90;;;;;;;;;;5040926;28;20580;-87
2023/11/07 08:24:06;;;;;;;1999.90;999.90;;;;;;;;;;5060022;28;20048;-86
2023/11/07 08:26:35;;;;;;;1999.90;999.90;;;;;;;;;;5059724;28;20056;-87
2023/11/07 08:29:05;;;;;;;1999.90;999.90;;;;;;;;;;5057401;28;20049;-87
2023/11/07 08:31:34;;;;;;;1999.90;999.90;;;;;;;;;;5050099;28;20048;-86
2023/11/07 08:34:01;;;;;;;1999.90;999.90;;;;;;;;;;5063002;28;20055;-87
2023/11/07 08:36:31;;;;;;;1999.90;999.90;;;;;;;;;;5058726;28;20049;-85
2023/11/07 08:38:58;;;;;;;1999.90;999.90;;;;;;;;;;5046722;28;20494;-87
2023/11/07 08:41:26;;;;;;;1999.90;999.90;;;;;;;;;;5041507;28;20045;-86
2023/11/07 08:43:54;;;;;;;1999.90;999.90;;;;;;;;;;5056699;28;20049;-85
2023/11/07 08:46:23;;;;;;;1999.90;999.90;;;;;;;;;;5056167;28;20052;-86
2023/11/07 08:48:51;;;;;;;1999.90;999.90;;;;;;;;;;5063133;28;20079;-88
2023/11/07 08:51:18;;;;;;;1999.90;999.90;;;;;;;;;;5059876;28;20049;-85
2023/11/07 08:53:46;;;;;;;1999.90;999.90;;;;;;;;;;5045003;28;20399;-87
2023/11/07 08:56:13;;;;;;;1999.90;999.90;;;;;;;;;;5064379;28;20051;-86
2023/11/07 08:58:40;;;;;;;1999.90;999.90;;;;;;;;;;5043647;28;20048;-85
2023/11/07 09:01:10;;;;;;;1999.90;999.90;;;;;;;;;;5056390;28;20049;-85
2023/11/07 09:03:38;;;;;;;1999.90;999.90;;;;;;;;;;5055308;28;20052;-86
2023/11/07 09:06:09;;;;;;;1999.90;999.90;;;;;;;;;;5040646;28;20049;-86
2023/11/07 09:08:35;;;;;;;1999.90;999.90;;;;;;;;;;5060655;28;20517;-87
2023/11/07 09:11:04;;;;;;;1999.90;999.90;;;;;;;;;;5064106;28;20140;-86
2023/11/07 09:13:31;;;;;;;1999.90;999.90;;;;;;;;;;5032052;28;20094;-88
2023/11/07 09:16:00;;;;;;;1999.90;999.90;;;;;;;;;;5063815;28;20120;-88
2023/11/07 09:18:27;;;;;;;1999.90;999.90;;;;;;;;;;5043198;28;20053;-90
2023/11/07 09:20:54;;;;;;;1999.90;999.90;;;;;;;;;;5053256;28;20152;-90
2023/11/07 09:23:21;;;;;;;1999.90;999.90;;;;;;;;;;5061376;28;20255;-88
2023/11/07 09:25:47;;;;;;;1999.90;999.90;;;;;;;;;;5060726;28;20101;-91
2023/11/07 09:28:16;;;;;;;1999.90;999.90;;;;;;;;;;5060955;28;20589;-89
2023/11/07 09:30:43;;;;;;;1999.90;999.90;;;;;;;;;;5062363;28;20192;-88
2023/11/07 09:33:09;;;;;;;1999.90;999.90;;;;;;;;;;5063277;28;20135;-87
2023/11/07 09:35:40;;;;;;;1999.90;999.90;;;;;;;;;;5070020;28;20072;-91
2023/11/07 09:38:07;;;;;;;1999.90;999.90;;;;;;;;;;5061767;28;20087;-86
2023/11/07 09:40:34;;;;;;;1999.90;999.90;;;;;;;;;;5060501;28;20055;-86
2023/11/07 09:43:33;;;;;;;1999.90;999.90;;;;;;;;;;5061989;28;20049;-87
2023/11/07 09:46:01;;;;;;;1999.90;999.90;;;;;;;;;;5063248;28;20085;-88
2023/11/07 09:48:28;;;;;;;1999.90;999.90;;;;;;;;;;5058667;28;20078;-88
2023/11/07 09:50:56;;;;;;;1999.90;999.90;;;;;;;;;;5059708;28;20056;-87
2023/11/07 09:53:23;;;;;;;1999.90;999.90;;;;;;;;;;5060810;28;20402;-89
2023/11/07 09:55:50;;;;;;;1999.90;999.90;;;;;;;;;;5060874;28;20080;-88
2023/11/07 09:58:22;;;;;;;1999.90;999.90;;;;;;;;;;5058341;28;20060;-87
2023/11/07 10:00:52;;;;;;;1999.90;999.90;;;;;;;;;;5062939;28;20091;-87
2023/11/07 10:03:19;;;;;;;1999.90;999.90;;;;;;;;;;5047893;28;20528;-88
2023/11/07 10:05:47;;;;;;;1999.90;999.90;;;;;;;;;;5041519;28;20051;-86
2023/11/07 10:08:16;;;;;;;1999.90;999.90;;;;;;;;;;5063005;28;20053;-86
2023/11/07 10:11:01;;;;;;;1999.90;999.90;;;;;;;;;;5061334;28;20045;-90
2023/11/07 10:13:31;;;;;;;1999.90;999.90;;;;;;;;;;5059529;28;20091;-87
2023/11/07 10:16:08;;;;;;;1999.90;999.90;;;;;;;;;;5055773;28;20049;-88
2023/11/07 10:18:48;;;;;;;1999.90;999.90;;;;;;;;;;5062505;28;20072;-88
2023/11/07 10:21:19;;;;;;;1999.90;999.90;;;;;;;;;;5060030;28;20167;-88
2023/11/07 10:23:46;;;;;;;1999.90;999.90;;;;;;;;;;5068377;28;20151;-88
2023/11/07 10:26:15;;;;;;;1999.90;999.90;;;;;;;;;;5047646;28;20098;-92
2023/11/07 10:28:42;;;;;;;1999.90;999.90;;;;;;;;;;5041267;28;20422;-87
2023/11/07 10:31:20;;;;;;;1999.90;999.90;;;;;;;;;;5072020;28;20056;-87
2023/11/07 10:33:48;;;;;;;1999.90;999.90;;;;;;;;;;5065036;28;20139;-87
2023/11/07 10:36:14;;;;;;;1999.90;999.90;;;;;;;;;;5064347;28;20107;-89
2023/11/07 10:38:41;;;;;;;1999.90;999.90;;;;;;;;;;5067987;28;20059;-88
2023/11/07 10:41:08;;;;;;;1999.90;999.90;;;;;;;;;;5068381;28;20127;-87
2023/11/07 10:43:36;;;;;;;1999.90;999.90;;;;;;;;;;5033698;28;20047;-90
2023/11/07 10:46:04;;;;;;;1999.90;999.90;;;;;;;;;;5021615;28;20540;-88
2023/11/07 10:48:43;;;;;;;1999.90;999.90;;;;;;;;;;5057697;28;20068;-89
2023/11/07 10:51:12;;;;;;;1999.90;999.90;;;;;;;;;;5048042;28;20045;-88
2023/11/07 10:53:42;;;;;;;1999.90;999.90;;;;;;;;;;5065781;28;20071;-88
2023/11/07 10:56:12;;;;;;;1999.90;999.90;;;;;;;;;;5070730;28;20044;-90
2023/11/07 10:58:43;;;;;;;1999.90;999.90;;;;;;;;;;5065371;28;20062;-86
2023/11/07 11:01:11;;;;;;;1999.90;999.90;;;;;;;;;;5067084;28;20471;-86
2023/11/07 11:03:41;;;;;;;1999.90;999.90;;;;;;;;;;5066770;28;20060;-88
2023/11/07 11:06:09;;;;;;;1999.90;999.90;;;;;;;;;;5068339;28;20144;-87
2023/11/07 11:08:45;;;;;;;1999.90;999.90;;;;;;;;;;5066524;28;20094;-88
2023/11/07 11:11:13;;;;;;;;;;;;;;;;;;5064108;28;20106;-86
2023/11/07 11:13:41;;;;;;;1999.90;999.90;;;;;;;;;;5062887;28;19985;-84
2023/11/07 11:16:09;;;;;;;1999.90;999.90;;;;;;;;;;5059893;28;20049;-85
2023/11/07 11:18:45;;;;;;;1999.90;999.90;;;;;;;;;;5061812;28;20434;-89
2023/11/07 11:21:16;;;;;;;1999.90;999.90;;;;;;;;;;5050661;28;20056;-89
2023/11/07 11:24:01;;;;;;;1999.90;999.90;;;;;;;;;;5062696;28;20087;-91
2023/11/07 11:26:33;;;;;;;1999.90;999.90;;;;;;;;;;5064833;28;20048;-94
2023/11/07 11:29:00;;;;;;;1999.90;999.90;;;;;;;;;;5066058;28;20112;-92
2023/11/07 11:31:28;;;;;;;1999.90;999.90;;;;;;;;;;5068652;28;20109;-90
2023/11/07 11:34:25;;;;;;;1999.90;999.90;;;;;;;;;;5061801;28;20052;-91
2023/11/07 11:36:57;;;;;;;1999.90;999.90;;;;;;;;;;5073262;28;20052;-91
2023/11/07 11:39:46;;;;;;;1999.90;999.90;;;;;;;;;;5057132;28;20068;-89
2023/11/07 11:42:19;;;;;;;1999.90;999.90;;;;;;;;;;5054909;28;20052;-90
2023/11/07 11:45:23;;;;;;;1999.90;999.90;;;;;;;;;;5053981;28;20045;-90
2023/11/07 11:47:51;;;;;;;1999.90;999.90;;;;;;;;;;5042493;28;20049;-87
2023/11/07 11:50:23;;;;;;;1999.90;999.90;;;;;;;;;;5054650;28;20053;-89
2023/11/07 11:52:50;;;;;;;1999.90;999.90;;;;;;;;;;5061130;28;20565;-91
2023/11/07 11:55:17;;;;;;;1999.90;999.90;;;;;;;;;;5067565;28;20049;-90
2023/11/07 11:58:25;;;;;;;1999.90;999.90;;;;;;;;;;5065589;28;20056;-89
2023/11/07 12:01:03;;;;;;;1999.90;999.90;;;;;;;;;;5070984;28;20064;-91
2023/11/07 12:03:36;;;;;;;1999.90;999.90;;;;;;;;;;5067910;28;20066;-96
2023/11/07 12:06:19;;;;;;;1999.90;999.90;;;;;;;;;;5058274;28;20102;-92
2023/11/07 12:08:48;;;;;;;1999.90;999.90;;;;;;;;;;5051331;28;20057;-87
2023/11/07 12:11:15;;;;;;;1999.90;999.90;;;;;;;;;;5046262;28;20080;-89
2023/11/07 12:13:42;;;;;;;1999.90;999.90;;;;;;;;;;5047747;28;20144;-87
2023/11/07 12:16:15;;;;;;;1999.90;999.90;;;;;;;;;;5057244;28;20055;-88
2023/11/07 12:18:46;;;;;;;1999.90;999.90;;;;;;;;;;5062447;28;20049;-89
2023/11/07 12:21:26;;;;;;;1999.90;999.90;;;;;;;;;;5043443;28;20057;-89
2023/11/07 12:23:53;;;;;;;1999.90;999.90;;;;;;;;;;5053791;28;20060;-89
2023/11/07 12:26:21;;;;;;;1999.90;999.90;;;;;;;;;;5066126;28;20048;-91
2023/11/07 12:28:47;;;;;;;1999.90;999.90;;;;;;;;;;5061513;28;20144;-89
2023/11/07 12:31:15;;;;;;;1999.90;999.90;;;;;;;;;;5069170;28;20089;-89
2023/11/07 12:33:42;;;;;;;1999.90;999.90;;;;;;;;;;5065055;28;20079;-88
2023/11/07 12:36:10;;;;;;;1999.90;999.90;;;;;;;;;;5053831;28;20059;-88
2023/11/07 12:38:39;;;;;;;1999.90;999.90;;;;;;;;;;5062345;28;20097;-88
2023/11/07 12:41:06;;;;;;;1999.90;999.90;;;;;;;;;;5062051;28;20041;-91
2023/11/07 12:43:40;;;;;;;1999.90;999.90;;;;;;;;;;5071023;28;20561;-94
2023/11/07 12:46:12;;;;;;;1999.90;999.90;;;;;;;;;;5060156;28;20052;-92
2023/11/07 12:48:40;;;;;;;1999.90;999.90;;;;;;;;;;5061476;28;20056;-91
2023/11/07 12:51:08;;;;;;;1999.90;999.90;;;;;;;;;;5062070;28;20049;-86
2023/11/07 12:53:48;;;;;;;1999.90;999.90;;;;;;;;;;5064821;28;20040;-92
2023/11/07 12:56:17;;;;;;;1999.90;999.90;;;;;;;;;;5064883;28;20055;-89
2023/11/07 12:58:46;;;;;;;1999.90;999.90;;;;;;;;;;5058626;28;20053;-88
2023/11/07 13:01:13;;;;;;;1999.90;999.90;;;;;;;;;;5068283;28;20068;-88
2023/11/07 13:03:40;;;;;;;1999.90;999.90;;;;;;;;;;5066469;28;20493;-89
2023/11/07 13:06:09;;;;;;;1999.90;999.90;;;;;;;;;;5050336;28;20711;-88
2023/11/07 13:08:37;;;;;;;1999.90;999.90;;;;;;;;;;5065578;28;20041;-88
2023/11/07 13:11:24;;;;;;;1999.90;999.90;;;;;;;;;;5061741;28;20410;-90
2023/11/07 13:13:51;;;;;;;1999.90;999.90;;;;;;;;;;5059725;28;20048;-87
2023/11/07 13:16:20;;;;;;;1999.90;999.90;;;;;;;;;;5064786;28;20083;-88
2023/11/07 13:18:48;;;;;;;1999.90;999.90;;;;;;;;;;5067962;28;20064;-90
2023/11/07 13:21:16;;;;;;;1999.90;999.90;;;;;;;;;;5069187;28;20136;-89
2023/11/07 13:23:43;;;;;;;1999.90;999.90;;;;;;;;;;5066330;28;20227;-91
2023/11/07 13:26:15;;;;;;;1999.90;999.90;;;;;;;;;;5061630;28;20045;-93
2023/11/07 13:28:43;;;;;;;1999.90;999.90;;;;;;;;;;5063478;28;20064;-90
2023/11/07 13:31:10;;;;;;;1999.90;999.90;;;;;;;;;;5065909;28;20140;-88
2023/11/07 13:33:38;;;;;;;1999.90;999.90;;;;;;;;;;5060958;28;20048;-90
2023/11/07 13:36:05;;;;;;;1999.90;999.90;;;;;;;;;;5055726;28;20487;-91
2023/11/07 13:38:32;;;;;;;1999.90;999.90;;;;;;;;;;5064499;28;20076;-89
2023/11/07 13:40:59;;;;;;;1999.90;999.90;;;;;;;;;;5050423;28;20151;-89
2023/11/07 13:43:29;;;;;;;1999.90;999.90;;;;;;;;;;5066464;28;20052;-90
2023/11/07 13:45:56;;;;;;;1999.90;999.90;;;;;;;;;;5057575;28;20419;-89
2023/11/07 13:48:24;;;;;;;1999.90;999.90;;;;;;;;;;5071263;28;20051;-89
2023/11/07 13:50:51;;;;;;;1999.90;999.90;;;;;;;;;;5059194;28;20057;-89